Aérodrome :
LOGIN :

S'inscrire | Disclaimer

   EN    FR    IT 

 










Légende :    VFR   VFR Marginal   IFR   IFR Intensif   IFR Très Intensif
Visi : 
Plafond : 
>= 8 km
>= 3000ft
5 à 8 km
1000 à 3000 ft
1500m à 5 km
500 à 1000 ft
800 à 1500m
200 à 500 ft
< 800m
< 200 ft
Symboles :   Orages  Brouillard  Fortes neiges  Fortes précipitations  Vent > 20 kt
SIGMETs :   Divers  Orages  Givrage  Turbulence  Onde Orograph.  Cendres Volcan.







- Altitude de l'aérodrome : 32 ft
- Code IATA : LKZ


EGUL - RAF Lakenheath

DERNIER METAR :
  • 260656Z AUTO 25013G20KT 9999 CLR 08/04 A2993 RMK AO2 SLP139 T00820038 $

METARs EXPIRÉS :
  • 260556Z AUTO 24011KT 9999 CLR 07/04 A2991 RMK AO2 SLP132 T00670037 10069 20056 52009 $
  • 260456Z AUTO 24011KT 9999 FEW055 06/03 A2990 RMK AO2 SLP129 T00570032 $

TAF TAF EGUL
Valide du 26 à 04h jusqu'au 27 à 10h UTC


260409Z 2604/2710 23012KT 9999 FEW090 QNH2978INS
TEMPO 2604/2608 23015G20KT
BECMG 2607/2608 25015G20KT 9999 SCT015 QNH2985INS
TEMPO 2613/2618 8000 -SHRA BKN020
BECMG 2620/2621 25009KT 9999 SCT070 QNH2985INS
BECMG 2704/2705 24012KT 8000 -SHRA BKN060 QNH2975INS TX15/2612Z TN05/2605Z
Pas de NOTAMs connus pour ce terrain.



MET'MAP, la Météo Aéronautique d'un coup d'oeil ! - Copyright ORBIFLY Décembre 2007 - Disclaimer

ORBIFLY MET'MAP TEAM :

Programmation & Développement : Alexandra Zaïnal
Conception & Développement : Baudouin d'Aumeries
Co-Programmation & Développement : Marc-Olivier Méhu
Soutien technique & logistique : Manuel Goepfert

Contact : metmap@orbifly.com




SOURCES & CREDITS :

   NOAA